Time;durP1;ratioP1;P1;durP2;ratioP2;P2;SDS_P1;SDS_P2;PMS_P1;PMS_P2;Temp;Humidity;BMP_temperature;BMP_pressure;BME280_temperature;BME280_humidity;BME280_pressure;Samples;Min_cycle;Max_cycle;Signal;HPM_P1;HPM_P2
2022/12/12 00:01:26;;;;;;;112.00;65.38;;;-3.00;99.90;;;;;;5096334;28;20433;-65
2022/12/12 00:03:52;;;;;;;114.25;68.32;;;-3.10;99.90;;;;;;5114761;28;20472;-64
2022/12/12 00:06:19;;;;;;;109.38;65.40;;;-3.20;99.90;;;;;;5114712;28;20110;-64
2022/12/12 00:08:45;;;;;;;110.93;70.13;;;-3.30;99.90;;;;;;5114468;28;20098;-65
2022/12/12 00:11:11;;;;;;;117.70;70.63;;;-3.40;99.90;;;;;;5114889;28;20102;-65
2022/12/12 00:13:37;;;;;;;99.82;57.83;;;-3.30;99.90;;;;;;5114631;28;20024;-65
2022/12/12 00:16:04;;;;;;;92.03;54.58;;;-3.20;99.90;;;;;;5114156;28;20024;-65
2022/12/12 00:18:30;;;;;;;76.90;47.53;;;-3.10;99.90;;;;;;5114544;28;20080;-65
2022/12/12 00:20:56;;;;;;;89.85;50.28;;;-3.10;99.90;;;;;;5114374;28;20102;-65
2022/12/12 00:23:25;;;;;;;72.35;42.22;;;-3.00;99.90;;;;;;5114383;28;20483;-65
2022/12/12 00:25:58;;;;;;;73.60;44.08;;;-3.10;99.90;;;;;;5114413;28;20472;-65
2022/12/12 00:28:24;;;;;;;74.25;44.42;;;-3.10;99.90;;;;;;5114375;28;20028;-65
2022/12/12 00:30:49;;;;;;;74.85;46.40;;;-3.30;99.90;;;;;;5113880;28;20050;-65
2022/12/12 00:33:15;;;;;;;78.68;46.50;;;-3.60;99.90;;;;;;5114281;28;20020;-66
2022/12/12 00:35:41;;;;;;;87.90;50.17;;;-3.40;99.90;;;;;;5113922;28;20027;-65
2022/12/12 00:38:07;;;;;;;85.38;50.35;;;-3.40;99.90;;;;;;5113557;28;20396;-65
2022/12/12 00:40:33;;;;;;;89.28;53.08;;;-3.40;99.90;;;;;;5112971;28;20023;-65
2022/12/12 00:42:58;;;;;;;79.97;48.25;;;-3.60;99.90;;;;;;5113212;28;20024;-65
2022/12/12 00:45:24;;;;;;;86.22;49.53;;;-3.60;99.90;;;;;;5113898;28;20027;-65
2022/12/12 00:47:50;;;;;;;90.53;54.72;;;-3.70;99.90;;;;;;5113792;28;20480;-65
2022/12/12 00:50:15;;;;;;;95.47;57.58;;;-3.60;99.90;;;;;;5113812;28;20032;-65
2022/12/12 00:52:41;;;;;;;174.13;76.85;;;-3.50;99.90;;;;;;5113354;28;20023;-65
2022/12/12 00:55:10;;;;;;;146.35;71.03;;;-3.40;99.90;;;;;;5113777;28;20080;-65
2022/12/12 00:57:36;;;;;;;73.43;41.20;;;-3.50;99.90;;;;;;5114043;28;20038;-66
2022/12/12 01:00:07;;;;;;;70.55;41.17;;;-3.50;99.90;;;;;;5115458;27;20039;-65
2022/12/12 01:02:32;;;;;;;66.15;39.85;;;-3.50;99.90;;;;;;5113608;28;20055;-65
2022/12/12 01:04:58;;;;;;;75.15;41.45;;;-3.50;99.90;;;;;;5113378;28;20074;-66
2022/12/12 01:07:24;;;;;;;74.22;40.60;;;-3.60;99.90;;;;;;5113532;28;20488;-65
2022/12/12 01:09:50;;;;;;;47.42;30.42;;;-3.60;99.90;;;;;;5113484;28;20039;-65
2022/12/12 01:12:15;;;;;;;45.53;29.00;;;-3.50;99.90;;;;;;5095469;28;20110;-65
2022/12/12 01:14:41;;;;;;;39.15;27.25;;;-3.40;99.90;;;;;;5113042;28;20089;-65
2022/12/12 01:17:07;;;;;;;38.03;27.75;;;-3.50;99.90;;;;;;5113206;28;20106;-65
2022/12/12 01:19:33;;;;;;;61.97;35.05;;;-3.80;99.90;;;;;;5113219;28;20365;-65
2022/12/12 01:21:58;;;;;;;50.58;30.95;;;-3.90;99.90;;;;;;5113420;28;20027;-66
2022/12/12 01:24:24;;;;;;;40.45;28.25;;;-4.00;99.90;;;;;;5113413;28;20024;-65
2022/12/12 01:26:50;;;;;;;41.05;29.67;;;-3.90;99.90;;;;;;5113077;28;20443;-65
2022/12/12 01:29:16;;;;;;;42.92;28.90;;;-3.90;99.90;;;;;;5112540;28;20083;-65
2022/12/12 01:31:41;;;;;;;52.55;30.88;;;-3.70;99.90;;;;;;5113381;28;20083;-65
2022/12/12 01:34:07;;;;;;;45.05;30.10;;;-3.70;99.90;;;;;;5113045;28;20087;-65
2022/12/12 01:36:33;;;;;;;40.95;29.58;;;-3.80;99.90;;;;;;5112826;28;20031;-65
2022/12/12 01:38:59;;;;;;;39.58;29.33;;;-4.00;99.90;;;;;;5112886;28;20373;-65
2022/12/12 01:41:26;;;;;;;43.10;30.05;;;-3.90;99.90;;;;;;5112720;28;20119;-65
2022/12/12 01:43:52;;;;;;;42.60;28.75;;;-3.70;99.90;;;;;;5113007;28;20042;-65
2022/12/12 01:46:21;;;;;;;43.42;29.80;;;-3.90;99.90;;;;;;5112830;28;20047;-65
2022/12/12 01:49:00;;;;;;;42.42;28.25;;;-4.10;99.90;;;;;;5110682;28;20019;-65
2022/12/12 01:51:27;;;;;;;45.97;31.77;;;-3.90;99.90;;;;;;5123332;27;20072;-65
2022/12/12 01:54:00;;;;;;;44.40;30.60;;;-3.90;99.90;;;;;;5133331;27;20034;-65
2022/12/12 01:56:25;;;;;;;44.22;29.85;;;-4.00;99.90;;;;;;5133194;27;20019;-65
2022/12/12 01:58:53;;;;;;;45.20;30.33;;;-4.20;99.90;;;;;;5132901;27;20043;-65
2022/12/12 02:01:19;;;;;;;45.30;30.27;;;-4.00;99.90;;;;;;5133089;27;20091;-65
2022/12/12 02:03:47;;;;;;;48.45;33.20;;;-4.10;99.90;;;;;;5132962;27;20031;-65
2022/12/12 02:06:19;;;;;;;49.88;32.88;;;-3.90;99.90;;;;;;5132526;27;20442;-65
2022/12/12 02:08:47;;;;;;;48.08;32.05;;;-4.00;99.90;;;;;;5132834;27;20072;-65
2022/12/12 02:11:12;;;;;;;51.95;34.78;;;-3.90;99.90;;;;;;5133037;27;20019;-65
2022/12/12 02:13:39;;;;;;;53.75;34.42;;;-3.80;99.90;;;;;;5132510;27;20102;-65
2022/12/12 02:16:07;;;;;;;51.17;33.08;;;-3.90;99.90;;;;;;5132864;27;20019;-66
2022/12/12 02:18:39;;;;;;;50.58;33.58;;;-4.10;99.90;;;;;;5130755;27;20070;-65
2022/12/12 02:21:07;;;;;;;50.90;33.15;;;-4.20;99.90;;;;;;5112434;28;20028;-65
2022/12/12 02:23:51;;;;;;;56.20;34.47;;;-4.30;99.90;;;;;;5112402;28;20102;-66
2022/12/12 02:26:35;;;;;;;53.10;33.65;;;-4.40;99.90;;;;;;5111619;28;20015;-65
2022/12/12 02:29:13;;;;;;;46.38;31.73;;;-4.30;99.90;;;;;;5112081;28;20036;-65
2022/12/12 02:32:07;;;;;;;48.60;31.42;;;-4.10;99.90;;;;;;5111803;28;20075;-65
2022/12/12 02:34:33;;;;;;;44.05;28.00;;;-4.00;99.90;;;;;;5112064;28;20035;-64
2022/12/12 02:37:17;;;;;;;46.05;30.92;;;-3.90;99.90;;;;;;5120297;27;20027;-65
2022/12/12 02:39:49;;;;;;;49.75;32.63;;;-4.00;99.90;;;;;;5132862;27;20495;-65
2022/12/12 02:42:27;;;;;;;48.57;32.07;;;-4.10;99.90;;;;;;5132248;27;20030;-65
2022/12/12 02:45:02;;;;;;;52.63;31.98;;;-4.10;99.90;;;;;;5132494;27;20023;-65
2022/12/12 02:47:37;;;;;;;45.70;28.85;;;-4.10;99.90;;;;;;5132496;28;20023;-65
2022/12/12 02:50:11;;;;;;;40.58;25.75;;;-4.20;99.90;;;;;;5132308;28;20019;-65
2022/12/12 02:52:37;;;;;;;36.08;24.52;;;-4.20;99.90;;;;;;5132433;28;20019;-65
2022/12/12 02:55:04;;;;;;;38.47;25.40;;;-4.10;99.90;;;;;;5132405;28;20360;-65
2022/12/12 02:57:30;;;;;;;39.55;25.13;;;-4.20;99.90;;;;;;5132127;28;20035;-65
2022/12/12 02:59:59;;;;;;;42.55;28.35;;;-4.30;99.90;;;;;;5132752;28;20094;-65
2022/12/12 03:02:28;;;;;;;43.85;29.52;;;-4.20;99.90;;;;;;5132352;28;20114;-65
2022/12/12 03:08:30;;;;;;;43.20;27.15;;;-4.50;99.90;;;;;;5132365;28;20076;-65
2022/12/12 03:11:01;;;;;;;48.33;28.20;;;-4.50;99.90;;;;;;5131799;28;20330;-65
2022/12/12 03:13:41;;;;;;;37.80;24.23;;;-4.60;99.90;;;;;;5132048;28;20034;-65
2022/12/12 03:16:37;;;;;;;38.90;25.15;;;-4.60;99.90;;;;;;5114251;27;20391;-65
2022/12/12 03:19:32;;;;;;;39.33;24.95;;;-4.60;99.90;;;;;;5129799;27;20119;-65
2022/12/12 03:22:10;;;;;;;42.53;26.02;;;-4.60;99.90;;;;;;5116036;28;20015;-65
2022/12/12 03:25:14;;;;;;;47.72;29.25;;;-4.60;99.90;;;;;;5115088;28;20484;-66
2022/12/12 03:27:49;;;;;;;37.58;25.50;;;-4.20;99.90;;;;;;5012501;28;20037;-65
2022/12/12 03:30:18;;;;;;;35.78;22.80;;;-4.00;99.90;;;;;;5012395;28;20447;-65
2022/12/12 03:33:18;;;;;;;54.25;36.28;;;-4.20;99.90;;;;;;5012213;28;20635;-65
2022/12/12 03:36:17;;;;;;;43.65;28.15;;;-4.40;99.90;;;;;;4995229;28;20517;-65
2022/12/12 03:38:58;;;;;;;36.45;24.52;;;-4.60;99.90;;;;;;5004723;28;20080;-64
2022/12/12 03:41:30;;;;;;;34.28;22.92;;;-4.30;99.90;;;;;;4996428;28;20034;-65
2022/12/12 03:44:14;;;;;;;39.53;27.58;;;-4.20;99.90;;;;;;5012352;28;20041;-65
2022/12/12 03:46:42;;;;;;;;;;;-4.20;99.90;;;;;;5012710;28;20199;-65
2022/12/12 03:49:17;;;;;;;41.13;26.13;;;-4.40;99.90;;;;;;5012407;28;19932;-65
2022/12/12 03:51:58;;;;;;;64.07;40.35;;;-4.50;99.90;;;;;;5012376;28;20057;-64
2022/12/12 03:54:55;;;;;;;105.13;56.63;;;-4.40;99.90;;;;;;5012367;28;20033;-65
2022/12/12 03:58:02;;;;;;;70.22;40.92;;;-4.30;99.90;;;;;;5011795;28;20046;-65
2022/12/12 04:00:30;;;;;;;150.27;78.70;;;-4.20;99.90;;;;;;4953343;28;20027;-65
2022/12/12 04:03:02;;;;;;;99.70;57.63;;;-3.90;99.90;;;;;;4974563;28;20037;-65
2022/12/12 04:14:56;;;;;;;60.15;39.13;;;-3.50;99.90;;;;;;4973157;28;20122;-65
2022/12/12 04:17:32;;;;;;;44.83;30.02;;;-3.30;99.90;;;;;;4972798;28;20101;-65
2022/12/12 04:23:31;;;;;;;52.40;33.17;;;-3.10;99.90;;;;;;4992002;28;20037;-65
2022/12/12 04:29:04;;;;;;;35.47;24.35;;;-3.10;99.90;;;;;;4991293;28;20076;-65
2022/12/12 04:31:33;;;;;;;38.78;26.67;;;-2.90;99.90;;;;;;4991779;28;20054;-65
2022/12/12 04:34:09;;;;;;;39.25;25.05;;;-2.80;99.90;;;;;;5003579;28;20485;-64
2022/12/12 04:36:36;;;;;;;32.25;22.63;;;-2.60;99.90;;;;;;5040097;28;20039;-65
2022/12/12 04:39:04;;;;;;;32.70;22.10;;;-2.30;99.90;;;;;;5050737;28;20523;-65
2022/12/12 04:41:33;;;;;;;29.63;22.88;;;-2.10;99.90;;;;;;5051046;28;20555;-65
2022/12/12 04:44:02;;;;;;;29.92;23.50;;;-1.90;99.90;;;;;;5050928;28;20029;-65
2022/12/12 04:46:32;;;;;;;29.65;22.30;;;-2.00;99.90;;;;;;5051408;28;20094;-65
2022/12/12 04:49:04;;;;;;;30.15;22.98;;;-1.90;99.90;;;;;;5076772;28;20250;-65
2022/12/12 04:51:41;;;;;;;36.22;25.73;;;-1.90;99.90;;;;;;5093300;28;20458;-65
2022/12/12 04:54:25;;;;;;;49.47;31.17;;;-1.80;99.90;;;;;;5093431;28;20051;-65
2022/12/12 04:56:55;;;;;;;34.90;24.42;;;-1.80;99.90;;;;;;5104504;27;20372;-65
2022/12/12 04:59:21;;;;;;;29.48;22.65;;;-1.70;99.90;;;;;;5134194;27;20035;-65
2022/12/12 05:02:42;;;;;;;32.17;24.13;;;-1.80;99.90;;;;;;5134537;27;20387;-65
2022/12/12 05:05:20;;;;;;;32.13;23.35;;;-1.80;99.90;;;;;;5050687;28;20039;-65
2022/12/12 05:07:53;;;;;;;30.83;22.67;;;-1.70;99.90;;;;;;5050571;28;20040;-65
2022/12/12 05:10:19;;;;;;;28.98;22.48;;;-1.70;99.90;;;;;;5050592;28;20539;-65
2022/12/12 05:12:50;;;;;;;30.77;23.67;;;-1.70;99.90;;;;;;5050363;28;20052;-65
2022/12/12 05:15:18;;;;;;;33.58;25.38;;;-1.70;99.90;;;;;;5044302;28;20038;-65
2022/12/12 05:17:55;;;;;;;67.85;45.20;;;-1.60;99.90;;;;;;5030484;28;20521;-65
2022/12/12 05:20:21;;;;;;;58.50;43.58;;;-1.60;99.90;;;;;;5029917;28;20038;-65
2022/12/12 05:22:47;;;;;;;43.42;32.33;;;-1.80;99.90;;;;;;5046729;28;20505;-65
2022/12/12 05:25:13;;;;;;;40.63;30.10;;;-1.80;99.90;;;;;;5030485;28;20037;-65
2022/12/12 05:27:39;;;;;;;29.15;23.38;;;-1.70;99.90;;;;;;5030418;28;20037;-65
2022/12/12 05:30:05;;;;;;;29.00;22.08;;;-1.70;99.90;;;;;;5030063;28;20203;-65
2022/12/12 05:32:31;;;;;;;27.73;21.58;;;-1.60;99.90;;;;;;5030582;28;20029;-65
2022/12/12 05:34:57;;;;;;;31.58;22.88;;;-1.60;99.90;;;;;;5029689;28;20143;-65
2022/12/12 05:37:22;;;;;;;29.98;23.25;;;-1.40;99.90;;;;;;5029782;28;20037;-65
2022/12/12 05:39:48;;;;;;;31.05;23.30;;;-1.30;99.90;;;;;;5031668;28;20382;-65
2022/12/12 05:42:14;;;;;;;28.42;21.80;;;-1.20;99.90;;;;;;5085005;28;20029;-65
2022/12/12 05:44:40;;;;;;;29.48;20.58;;;-1.10;99.90;;;;;;5052368;28;20043;-65
2022/12/12 05:47:06;;;;;;;28.45;21.45;;;-1.10;99.90;;;;;;5052348;28;20029;-65
2022/12/12 05:49:31;;;;;;;26.67;20.85;;;-1.10;99.90;;;;;;5052118;28;20021;-65
2022/12/12 05:51:57;;;;;;;25.65;21.17;;;-1.10;99.90;;;;;;5084645;28;20033;-65
2022/12/12 05:54:23;;;;;;;30.83;22.02;;;-1.10;99.90;;;;;;5065968;28;20020;-65
2022/12/12 05:56:49;;;;;;;30.40;22.33;;;-1.10;99.90;;;;;;5072047;28;20090;-65
2022/12/12 05:59:15;;;;;;;31.73;23.10;;;-1.20;99.90;;;;;;5071869;28;20115;-65
2022/12/12 06:01:41;;;;;;;31.63;22.38;;;-1.20;99.90;;;;;;5071819;28;20036;-65
2022/12/12 06:04:06;;;;;;;29.00;22.15;;;-1.10;99.90;;;;;;5071485;28;20044;-64
2022/12/12 06:06:32;;;;;;;27.75;21.48;;;-1.10;99.90;;;;;;5071732;28;20032;-65
2022/12/12 06:08:58;;;;;;;27.30;22.08;;;-1.10;99.90;;;;;;5071971;28;20024;-65
2022/12/12 06:11:24;;;;;;;29.25;21.48;;;-1.00;99.90;;;;;;5071955;28;20025;-64
2022/12/12 06:13:49;;;;;;;26.38;20.63;;;-0.90;99.90;;;;;;5072233;28;20028;-65
2022/12/12 06:16:17;;;;;;;28.17;20.98;;;-0.90;99.90;;;;;;5071531;28;20050;-64
2022/12/12 06:18:44;;;;;;;26.27;20.05;;;-0.80;99.90;;;;;;5071541;28;20166;-65
2022/12/12 06:21:12;;;;;;;29.08;21.90;;;-0.70;99.90;;;;;;5079555;28;20012;-65
2022/12/12 06:23:39;;;;;;;25.20;19.80;;;-0.70;99.90;;;;;;5091850;28;20024;-64
2022/12/12 06:26:07;;;;;;;24.77;19.50;;;-0.70;99.90;;;;;;5092136;28;20387;-64
2022/12/12 06:28:33;;;;;;;25.17;19.95;;;-0.80;99.90;;;;;;5091868;28;20020;-64
2022/12/12 06:30:59;;;;;;;23.95;20.02;;;-0.70;99.90;;;;;;5108413;27;20071;-63
2022/12/12 06:33:26;;;;;;;23.73;18.77;;;-0.60;99.90;;;;;;5132189;27;20047;-65
2022/12/12 06:36:04;;;;;;;25.50;19.15;;;-0.60;99.90;;;;;;5129246;27;20720;-64
2022/12/12 06:38:31;;;;;;;23.85;18.65;;;-0.50;99.90;;;;;;5111871;28;20028;-65
2022/12/12 06:40:57;;;;;;;24.48;18.40;;;-0.50;99.90;;;;;;5111785;28;20028;-65
2022/12/12 06:43:23;;;;;;;23.27;18.70;;;-0.50;99.90;;;;;;5112064;28;20127;-65
2022/12/12 06:45:49;;;;;;;21.85;17.92;;;-0.50;99.90;;;;;;5111570;28;20528;-65
2022/12/12 06:48:15;;;;;;;24.55;18.58;;;-0.30;99.90;;;;;;5111274;28;20181;-65
2022/12/12 06:50:42;;;;;;;39.58;27.60;;;-0.30;99.90;;;;;;5092782;28;20030;-65
2022/12/12 06:53:09;;;;;;;30.13;21.45;;;-0.20;99.90;;;;;;5111964;28;20464;-65
2022/12/12 06:55:39;;;;;;;22.33;17.02;;;-0.20;99.90;;;;;;5111841;28;20049;-65
2022/12/12 06:58:05;;;;;;;20.38;16.73;;;-0.20;99.90;;;;;;5111527;28;20115;-65
2022/12/12 07:00:31;;;;;;;22.88;17.77;;;-0.20;99.90;;;;;;5111762;28;20447;-65
2022/12/12 07:02:56;;;;;;;21.35;17.02;;;-0.30;99.90;;;;;;5111880;28;20028;-65
2022/12/12 07:05:22;;;;;;;22.45;18.10;;;-0.30;99.90;;;;;;5111579;28;20035;-65
2022/12/12 07:07:48;;;;;;;25.35;18.33;;;-0.30;99.90;;;;;;5111610;28;20024;-65
2022/12/12 07:10:14;;;;;;;27.55;19.83;;;-0.30;99.90;;;;;;5111670;28;20490;-65
2022/12/12 07:12:40;;;;;;;29.75;21.02;;;-0.30;99.90;;;;;;5111541;28;20023;-65
2022/12/12 07:15:06;;;;;;;27.45;21.15;;;-0.30;99.90;;;;;;5111620;28;20062;-65
2022/12/12 07:17:32;;;;;;;33.40;22.65;;;-0.30;99.90;;;;;;5111165;28;20516;-65
2022/12/12 07:19:57;;;;;;;31.10;24.08;;;-0.30;99.90;;;;;;5111471;28;20031;-65
2022/12/12 07:22:23;;;;;;;25.65;19.13;;;-0.30;99.90;;;;;;5111998;28;20089;-65
2022/12/12 07:24:51;;;;;;;23.88;17.67;;;-0.30;99.90;;;;;;5111561;28;20468;-65
2022/12/12 07:27:17;;;;;;;21.25;17.98;;;-0.10;99.90;;;;;;5111381;28;20023;-65
2022/12/12 07:29:43;;;;;;;21.48;17.52;;;-0.10;99.90;;;;;;5111975;28;20020;-65
2022/12/12 07:32:09;;;;;;;21.23;16.40;;;0.00;99.90;;;;;;5111028;28;20085;-65
2022/12/12 07:34:35;;;;;;;19.98;16.70;;;0.00;99.90;;;;;;5111475;28;20020;-65
2022/12/12 07:37:01;;;;;;;19.25;17.17;;;0.10;99.90;;;;;;5110870;28;20039;-65
2022/12/12 07:39:30;;;;;;;17.45;15.13;;;0.20;99.90;;;;;;5111192;28;20032;-66
2022/12/12 07:41:55;;;;;;;22.63;16.48;;;0.20;99.90;;;;;;5111755;28;20023;-65
2022/12/12 07:44:21;;;;;;;20.25;17.73;;;0.20;99.90;;;;;;5111594;28;20024;-65
2022/12/12 07:46:47;;;;;;;28.63;23.23;;;0.20;99.90;;;;;;5111049;28;20102;-65
2022/12/12 07:49:12;;;;;;;23.70;19.95;;;0.30;99.90;;;;;;5111281;28;20024;-65
2022/12/12 07:51:38;;;;;;;23.50;17.65;;;0.40;99.90;;;;;;5111031;28;20411;-65
2022/12/12 07:54:04;;;;;;;19.98;17.17;;;0.40;99.90;;;;;;5111464;28;20020;-64
2022/12/12 07:56:30;;;;;;;24.10;18.65;;;0.50;99.90;;;;;;5111221;28;20372;-64
2022/12/12 07:58:55;;;;;;;21.30;16.25;;;0.50;99.90;;;;;;5110963;28;20039;-64
2022/12/12 08:01:24;;;;;;;17.60;15.80;;;0.60;99.90;;;;;;5110719;28;20045;-64
2022/12/12 08:03:50;;;;;;;19.20;15.07;;;0.60;99.90;;;;;;5112802;28;20034;-65
2022/12/12 08:06:17;;;;;;;18.02;15.38;;;0.70;99.90;;;;;;5114546;28;20023;-64
2022/12/12 08:08:44;;;;;;;15.52;13.38;;;0.80;99.90;;;;;;5114450;28;20457;-64
2022/12/12 08:11:12;;;;;;;17.00;14.57;;;0.90;99.90;;;;;;5114778;28;20616;-65
2022/12/12 08:13:39;;;;;;;16.95;14.73;;;0.80;99.90;;;;;;5114428;28;20110;-64
2022/12/12 08:16:06;;;;;;;20.70;16.65;;;0.90;99.90;;;;;;5114049;28;20099;-64
2022/12/12 08:18:33;;;;;;;18.30;16.23;;;0.90;99.90;;;;;;5114729;28;20063;-64
2022/12/12 08:20:59;;;;;;;19.27;17.27;;;1.00;99.90;;;;;;5114937;28;20047;-63
2022/12/12 08:23:24;;;;;;;21.60;17.70;;;0.90;99.90;;;;;;5114265;28;20058;-63
2022/12/12 08:25:50;;;;;;;18.13;16.05;;;1.10;99.90;;;;;;5114340;28;20140;-63
2022/12/12 08:28:17;;;;;;;14.40;12.85;;;1.10;99.90;;;;;;5114826;28;20435;-63
2022/12/12 08:30:48;;;;;;;16.17;12.88;;;1.20;99.90;;;;;;5113475;28;20040;-64
2022/12/12 08:33:13;;;;;;;13.65;12.25;;;1.20;99.90;;;;;;5114049;28;20035;-65
2022/12/12 08:35:39;;;;;;;12.50;11.15;;;1.20;99.90;;;;;;5114106;28;20365;-64
2022/12/12 08:38:05;;;;;;;14.70;13.10;;;1.20;99.90;;;;;;5114014;28;20118;-65
2022/12/12 08:40:30;;;;;;;13.05;11.73;;;1.30;99.90;;;;;;5114113;28;20020;-63
2022/12/12 08:42:56;;;;;;;15.27;12.98;;;1.30;99.90;;;;;;5113826;28;20077;-64
2022/12/12 08:45:22;;;;;;;13.23;10.88;;;1.40;99.90;;;;;;5113827;28;20023;-65
2022/12/12 08:47:47;;;;;;;13.43;10.45;;;1.40;99.90;;;;;;5113928;28;20031;-65
2022/12/12 08:50:13;;;;;;;11.07;9.90;;;1.50;99.90;;;;;;5113584;28;20024;-64
2022/12/12 08:52:39;;;;;;;12.30;10.07;;;1.50;99.90;;;;;;5113459;28;20122;-68
2022/12/12 08:55:05;;;;;;;12.60;10.00;;;1.60;99.90;;;;;;5114110;28;20020;-66
2022/12/12 08:57:30;;;;;;;12.52;10.02;;;1.60;99.90;;;;;;5095718;28;20514;-66
2022/12/12 08:59:56;;;;;;;14.63;11.73;;;1.70;99.90;;;;;;5112758;28;20051;-66
2022/12/12 09:02:22;;;;;;;13.45;11.60;;;1.70;99.90;;;;;;5113751;28;20067;-65
2022/12/12 09:04:47;;;;;;;11.50;8.88;;;1.80;99.90;;;;;;5113422;28;20452;-65
2022/12/12 09:07:13;;;;;;;10.65;8.43;;;1.90;99.90;;;;;;5113469;28;20027;-63
2022/12/12 09:09:39;;;;;;;9.30;8.00;;;1.90;99.90;;;;;;5113419;28;20484;-66
2022/12/12 09:12:05;;;;;;;10.38;8.10;;;1.90;99.90;;;;;;5113781;28;20114;-65
2022/12/12 09:14:31;;;;;;;8.88;7.97;;;2.00;99.90;;;;;;5094556;28;20019;-65
2022/12/12 09:16:57;;;;;;;8.60;7.70;;;2.00;99.90;;;;;;5112494;28;20023;-64
2022/12/12 09:19:22;;;;;;;9.30;7.53;;;2.00;99.90;;;;;;5094518;28;20388;-65
2022/12/12 09:21:48;;;;;;;8.75;7.50;;;2.00;99.90;;;;;;5112967;28;20028;-63
2022/12/12 09:24:14;;;;;;;9.80;7.82;;;2.10;99.90;;;;;;5113482;28;20024;-64
2022/12/12 09:26:39;;;;;;;9.27;7.72;;;2.10;99.90;;;;;;5093997;28;20452;-62
2022/12/12 09:29:05;;;;;;;9.43;7.82;;;2.10;99.90;;;;;;5112253;28;20024;-64
2022/12/12 09:31:31;;;;;;;9.98;7.47;;;2.20;99.90;;;;;;5112626;28;20294;-64
2022/12/12 09:33:57;;;;;;;10.32;8.75;;;2.20;99.90;;;;;;5112801;28;20073;-64
2022/12/12 09:36:23;;;;;;;9.25;8.02;;;2.20;99.90;;;;;;5112830;28;20042;-64
2022/12/12 09:38:49;;;;;;;9.18;8.10;;;2.20;99.90;;;;;;5112814;28;20119;-65
2022/12/12 09:41:17;;;;;;;10.70;8.27;;;2.20;99.90;;;;;;5112083;28;20107;-64
2022/12/12 09:43:54;;;;;;;9.65;8.13;;;2.20;99.90;;;;;;5113176;28;20032;-64
2022/12/12 09:46:40;;;;;;;9.60;8.60;;;2.30;99.90;;;;;;5112897;28;20024;-63
2022/12/12 09:49:14;;;;;;;10.02;8.70;;;2.30;99.90;;;;;;5112956;28;20055;-64
2022/12/12 09:51:42;;;;;;;11.15;9.00;;;2.30;99.90;;;;;;5113082;28;20051;-64
2022/12/12 09:54:16;;;;;;;12.02;9.57;;;2.30;99.90;;;;;;5112392;28;20072;-64
2022/12/12 09:56:50;;;;;;;11.10;8.98;;;2.20;99.90;;;;;;5112675;28;20181;-64
2022/12/12 09:59:28;;;;;;;10.82;9.50;;;2.20;99.90;;;;;;5112644;28;20036;-70
2022/12/12 10:02:28;;;;;;;12.73;9.40;;;2.20;99.90;;;;;;5112464;28;20036;-65
2022/12/12 10:05:03;;;;;;;11.07;9.13;;;2.20;99.90;;;;;;5112522;28;20461;-65
2022/12/12 10:07:47;;;;;;;9.73;8.52;;;2.20;99.90;;;;;;5112554;28;20026;-63
2022/12/12 10:10:37;;;;;;;11.02;9.73;;;2.20;99.90;;;;;;5112160;28;20024;-64
2022/12/12 10:13:10;;;;;;;11.23;8.95;;;2.20;99.90;;;;;;5111961;28;20028;-64
2022/12/12 10:15:37;;;;;;;10.43;8.68;;;2.20;99.90;;;;;;5112074;28;20145;-64
2022/12/12 10:18:16;;;;;;;12.10;9.60;;;2.20;99.90;;;;;;5111935;28;20036;-64
2022/12/12 10:20:54;;;;;;;10.45;8.57;;;2.20;99.90;;;;;;5111824;28;20514;-65
2022/12/12 10:23:29;;;;;;;9.40;8.40;;;2.20;99.90;;;;;;5112112;28;20023;-65
2022/12/12 10:25:59;;;;;;;11.68;9.10;;;2.20;99.90;;;;;;5111321;28;20027;-64
2022/12/12 10:28:29;;;;;;;11.10;9.60;;;2.30;99.90;;;;;;5112660;28;20032;-64
2022/12/12 10:31:04;;;;;;;11.55;9.27;;;2.30;99.90;;;;;;5111539;28;20066;-65
2022/12/12 10:33:39;;;;;;;11.25;9.40;;;2.30;99.90;;;;;;5112426;28;20487;-65
2022/12/12 10:36:25;;;;;;;12.30;9.38;;;2.30;99.90;;;;;;5111772;28;20023;-64
2022/12/12 10:39:20;;;;;;;13.18;10.05;;;2.30;99.90;;;;;;5111895;28;20484;-65
2022/12/12 10:41:57;;;;;;;10.90;9.50;;;2.30;99.90;;;;;;5049105;28;20106;-64
2022/12/12 10:44:42;;;;;;;10.43;9.30;;;2.30;99.90;;;;;;5049012;28;20021;-64
2022/12/12 10:47:11;;;;;;;9.18;8.27;;;2.20;99.90;;;;;;5048980;28;20398;-65
2022/12/12 10:49:37;;;;;;;10.55;9.40;;;2.10;99.90;;;;;;5049306;28;20049;-64
2022/12/12 10:52:14;;;;;;;10.07;8.75;;;2.10;99.90;;;;;;5048414;28;20156;-64
2022/12/12 10:54:49;;;;;;;10.32;9.00;;;2.10;99.90;;;;;;5048410;28;20029;-65
2022/12/12 10:57:24;;;;;;;10.80;9.45;;;2.20;99.90;;;;;;5047142;28;20443;-66
2022/12/12 10:59:54;;;;;;;11.13;10.02;;;2.20;99.90;;;;;;5047977;28;20144;-66
2022/12/12 11:02:41;;;;;;;12.40;9.52;;;2.10;99.90;;;;;;5048556;28;20029;-66
2022/12/12 11:05:07;;;;;;;11.80;8.23;;;2.00;99.90;;;;;;5048710;28;20087;-66
2022/12/12 11:07:41;;;;;;;9.80;8.70;;;2.10;99.90;;;;;;5048576;28;20036;-66
2022/12/12 11:10:24;;;;;;;9.35;8.43;;;2.20;99.90;;;;;;5048209;28;20036;-66
2022/12/12 11:13:14;;;;;;;11.05;9.18;;;2.40;99.90;;;;;;5048662;28;20041;-66
2022/12/12 11:16:04;;;;;;;10.30;9.10;;;2.40;99.90;;;;;;5048510;28;20111;-66
2022/12/12 11:18:29;;;;;;;10.55;9.32;;;2.40;99.90;;;;;;5063962;28;20247;-66
2022/12/12 11:21:05;;;;;;;10.65;9.45;;;2.30;99.90;;;;;;5111466;28;20026;-66
2022/12/12 11:23:32;;;;;;;10.73;9.50;;;2.30;99.90;;;;;;5111092;28;20408;-65
2022/12/12 11:26:04;;;;;;;11.55;10.05;;;2.40;99.90;;;;;;5111171;28;20026;-65
2022/12/12 11:28:34;;;;;;;11.75;10.20;;;2.40;99.90;;;;;;5110976;28;20514;-65
2022/12/12 11:31:05;;;;;;;11.90;9.55;;;2.30;99.90;;;;;;5111170;28;20039;-65
2022/12/12 11:33:38;;;;;;;11.50;10.30;;;2.30;99.90;;;;;;5111162;28;20055;-66
2022/12/12 11:36:05;;;;;;;12.20;10.43;;;2.30;99.90;;;;;;5111499;28;20046;-68
2022/12/12 11:38:39;;;;;;;14.50;11.27;;;2.20;99.90;;;;;;5113888;28;20039;-65
2022/12/12 11:41:10;;;;;;;12.60;11.13;;;2.20;99.90;;;;;;5115598;28;20115;-65
2022/12/12 11:43:45;;;;;;;11.57;10.38;;;2.20;99.90;;;;;;5114408;28;20015;-65
2022/12/12 11:46:13;;;;;;;12.43;11.10;;;2.30;99.90;;;;;;5114730;28;20031;-66
2022/12/12 11:48:50;;;;;;;13.13;11.73;;;2.20;99.90;;;;;;5115022;28;20032;-65
2022/12/12 11:51:35;;;;;;;13.13;11.73;;;2.10;99.90;;;;;;5115222;28;20031;-66
2022/12/12 11:54:19;;;;;;;15.73;12.80;;;2.10;99.90;;;;;;5114808;28;20023;-65
2022/12/12 11:57:14;;;;;;;15.00;12.40;;;2.10;99.90;;;;;;5114614;28;20076;-65
2022/12/12 12:00:02;;;;;;;16.52;14.57;;;2.10;99.90;;;;;;5114908;28;20062;-66
2022/12/12 12:02:49;;;;;;;18.38;14.23;;;2.10;99.90;;;;;;5114953;28;20121;-67
2022/12/12 12:05:21;;;;;;;20.77;16.73;;;2.10;99.90;;;;;;5114610;28;20028;-68
2022/12/12 12:08:21;;;;;;;16.88;15.07;;;2.00;99.90;;;;;;5114560;28;20024;-67
2022/12/12 12:10:58;;;;;;;14.80;13.27;;;1.90;99.90;;;;;;5114849;28;20380;-67
2022/12/12 12:13:29;;;;;;;14.80;13.30;;;1.90;99.90;;;;;;5114733;28;20062;-66
2022/12/12 12:16:17;;;;;;;23.75;19.10;;;1.90;99.90;;;;;;5114917;28;20019;-65
2022/12/12 12:19:21;;;;;;;16.80;14.90;;;1.80;99.90;;;;;;5114361;28;20035;-66
2022/12/12 12:22:11;;;;;;;16.30;14.60;;;1.60;99.90;;;;;;5109310;28;20089;-65
2022/12/12 12:24:54;;;;;;;17.33;14.57;;;1.50;99.90;;;;;;5114291;28;20296;-65
2022/12/12 12:27:30;;;;;;;17.23;15.38;;;1.40;99.90;;;;;;5114217;28;20039;-66
2022/12/12 12:30:14;;;;;;;17.55;15.75;;;1.40;99.90;;;;;;5114690;28;20023;-66
2022/12/12 12:33:04;;;;;;;17.40;15.48;;;1.40;99.90;;;;;;5114242;28;20035;-65
2022/12/12 12:36:19;;;;;;;18.30;16.40;;;1.30;99.90;;;;;;5114002;28;20028;-65
2022/12/12 12:38:44;;;;;;;19.05;17.08;;;1.30;99.90;;;;;;5111356;28;20122;-66
2022/12/12 12:41:16;;;;;;;19.50;17.42;;;1.30;99.90;;;;;;5114252;28;20025;-65
2022/12/12 12:44:19;;;;;;;18.85;15.90;;;1.40;99.90;;;;;;5114006;28;20049;-65
2022/12/12 12:46:57;;;;;;;19.27;17.10;;;1.30;99.90;;;;;;5114029;28;20088;-65
2022/12/12 12:49:31;;;;;;;18.80;16.83;;;1.40;99.90;;;;;;5113357;28;20023;-65
2022/12/12 12:52:13;;;;;;;19.35;17.35;;;1.40;99.90;;;;;;5113657;28;20116;-65
2022/12/12 12:54:40;;;;;;;21.08;18.83;;;1.40;99.90;;;;;;5095244;28;20023;-65
2022/12/12 12:57:27;;;;;;;19.33;17.33;;;1.30;99.90;;;;;;5114278;28;20400;-65
2022/12/12 12:59:58;;;;;;;18.33;16.42;;;1.30;99.90;;;;;;5113752;28;20043;-65
2022/12/12 13:02:58;;;;;;;21.77;19.15;;;1.40;99.90;;;;;;5113968;28;20026;-64
2022/12/12 13:05:49;;;;;;;19.73;17.48;;;1.40;99.90;;;;;;5113156;28;20023;-69
2022/12/12 13:08:23;;;;;;;18.52;16.52;;;1.40;99.90;;;;;;5113221;28;20027;-65
2022/12/12 13:10:52;;;;;;;18.60;16.35;;;1.40;99.90;;;;;;5114032;28;20392;-65
2022/12/12 13:13:30;;;;;;;21.25;18.10;;;1.40;99.90;;;;;;5112989;28;20064;-65
2022/12/12 13:16:00;;;;;;;19.58;16.27;;;1.50;99.90;;;;;;5113026;28;20045;-65